sensor_id;sensor_type;location;lat;lon;timestamp;P1;durP1;ratioP1;P2;durP2;ratioP2
19788;SDS011;10054;59.332;18.244;2023-09-07T00:01:20;1.37;;;1.07;;
19788;SDS011;10054;59.332;18.244;2023-09-07T00:03:49;1.10;;;1.00;;
19788;SDS011;10054;59.332;18.244;2023-09-07T00:06:17;3.67;;;1.10;;
19788;SDS011;10054;59.332;18.244;2023-09-07T00:08:46;1.20;;;1.00;;
19788;SDS011;10054;59.332;18.244;2023-09-07T00:11:15;1.20;;;1.10;;
19788;SDS011;10054;59.332;18.244;2023-09-07T00:13:43;1.80;;;0.90;;
19788;SDS011;10054;59.332;18.244;2023-09-07T00:16:12;1.43;;;1.30;;
19788;SDS011;10054;59.332;18.244;2023-09-07T00:18:41;1.97;;;1.10;;
19788;SDS011;10054;59.332;18.244;2023-09-07T00:21:09;3.37;;;1.17;;
19788;SDS011;10054;59.332;18.244;2023-09-07T00:23:39;1.40;;;1.03;;
19788;SDS011;10054;59.332;18.244;2023-09-07T00:26:08;2.30;;;1.03;;
19788;SDS011;10054;59.332;18.244;2023-09-07T00:28:39;1.80;;;1.20;;
19788;SDS011;10054;59.332;18.244;2023-09-07T00:31:07;3.47;;;1.10;;
19788;SDS011;10054;59.332;18.244;2023-09-07T00:33:36;2.27;;;1.10;;
19788;SDS011;10054;59.332;18.244;2023-09-07T00:36:05;1.57;;;1.07;;
19788;SDS011;10054;59.332;18.244;2023-09-07T00:38:33;2.53;;;1.23;;
19788;SDS011;10054;59.332;18.244;2023-09-07T00:41:02;1.43;;;1.00;;
19788;SDS011;10054;59.332;18.244;2023-09-07T00:43:31;2.40;;;1.20;;
19788;SDS011;10054;59.332;18.244;2023-09-07T00:45:59;1.70;;;1.07;;
19788;SDS011;10054;59.332;18.244;2023-09-07T00:48:28;2.40;;;1.00;;
19788;SDS011;10054;59.332;18.244;2023-09-07T00:50:57;1.07;;;1.00;;
19788;SDS011;10054;59.332;18.244;2023-09-07T00:53:26;1.30;;;1.20;;
19788;SDS011;10054;59.332;18.244;2023-09-07T00:55:55;2.67;;;1.10;;
19788;SDS011;10054;59.332;18.244;2023-09-07T00:58:26;2.37;;;1.20;;
19788;SDS011;10054;59.332;18.244;2023-09-07T01:00:55;2.33;;;1.10;;
19788;SDS011;10054;59.332;18.244;2023-09-07T01:03:24;1.53;;;1.10;;
19788;SDS011;10054;59.332;18.244;2023-09-07T01:08:49;2.07;;;1.10;;
19788;SDS011;10054;59.332;18.244;2023-09-07T01:11:19;3.33;;;1.10;;
19788;SDS011;10054;59.332;18.244;2023-09-07T01:13:48;2.80;;;1.30;;
19788;SDS011;10054;59.332;18.244;2023-09-07T01:16:20;3.47;;;1.30;;
19788;SDS011;10054;59.332;18.244;2023-09-07T01:18:50;3.67;;;1.40;;
19788;SDS011;10054;59.332;18.244;2023-09-07T01:21:19;1.57;;;1.30;;
19788;SDS011;10054;59.332;18.244;2023-09-07T01:23:50;2.47;;;1.33;;
19788;SDS011;10054;59.332;18.244;2023-09-07T01:26:19;1.30;;;1.07;;
19788;SDS011;10054;59.332;18.244;2023-09-07T01:28:48;2.57;;;1.10;;
19788;SDS011;10054;59.332;18.244;2023-09-07T01:31:17;2.17;;;1.17;;
19788;SDS011;10054;59.332;18.244;2023-09-07T01:33:46;1.83;;;1.00;;
19788;SDS011;10054;59.332;18.244;2023-09-07T01:36:15;2.77;;;1.03;;
19788;SDS011;10054;59.332;18.244;2023-09-07T01:38:43;2.80;;;1.30;;
19788;SDS011;10054;59.332;18.244;2023-09-07T01:41:12;3.67;;;1.23;;
19788;SDS011;10054;59.332;18.244;2023-09-07T01:43:41;1.70;;;1.03;;
19788;SDS011;10054;59.332;18.244;2023-09-07T01:46:09;2.77;;;1.03;;
19788;SDS011;10054;59.332;18.244;2023-09-07T01:48:38;1.43;;;1.00;;
19788;SDS011;10054;59.332;18.244;2023-09-07T01:51:08;2.20;;;1.47;;
19788;SDS011;10054;59.332;18.244;2023-09-07T01:53:37;3.03;;;1.30;;
19788;SDS011;10054;59.332;18.244;2023-09-07T01:56:05;1.60;;;1.20;;
19788;SDS011;10054;59.332;18.244;2023-09-07T01:58:34;2.20;;;1.30;;
19788;SDS011;10054;59.332;18.244;2023-09-07T02:01:03;1.20;;;1.10;;
19788;SDS011;10054;59.332;18.244;2023-09-07T02:03:33;3.27;;;1.13;;
19788;SDS011;10054;59.332;18.244;2023-09-07T02:06:02;2.50;;;1.10;;
19788;SDS011;10054;59.332;18.244;2023-09-07T02:08:31;2.17;;;1.23;;
19788;SDS011;10054;59.332;18.244;2023-09-07T02:10:59;1.23;;;1.13;;
19788;SDS011;10054;59.332;18.244;2023-09-07T02:13:29;2.10;;;1.30;;
19788;SDS011;10054;59.332;18.244;2023-09-07T02:15:57;4.00;;;1.13;;
19788;SDS011;10054;59.332;18.244;2023-09-07T02:18:27;1.33;;;1.00;;
19788;SDS011;10054;59.332;18.244;2023-09-07T02:21:01;1.00;;;1.00;;
19788;SDS011;10054;59.332;18.244;2023-09-07T02:23:33;1.20;;;1.10;;
19788;SDS011;10054;59.332;18.244;2023-09-07T02:26:03;1.20;;;1.10;;
19788;SDS011;10054;59.332;18.244;2023-09-07T02:28:32;2.97;;;1.30;;
19788;SDS011;10054;59.332;18.244;2023-09-07T02:31:04;1.13;;;1.03;;
19788;SDS011;10054;59.332;18.244;2023-09-07T02:33:33;3.23;;;1.40;;
19788;SDS011;10054;59.332;18.244;2023-09-07T02:36:02;1.50;;;1.00;;
19788;SDS011;10054;59.332;18.244;2023-09-07T02:38:31;1.80;;;1.20;;
19788;SDS011;10054;59.332;18.244;2023-09-07T02:41:01;3.80;;;1.27;;
19788;SDS011;10054;59.332;18.244;2023-09-07T02:43:31;1.13;;;1.00;;
19788;SDS011;10054;59.332;18.244;2023-09-07T02:46:00;1.53;;;1.20;;
19788;SDS011;10054;59.332;18.244;2023-09-07T02:48:29;1.43;;;1.10;;
19788;SDS011;10054;59.332;18.244;2023-09-07T02:50:57;6.63;;;1.23;;
19788;SDS011;10054;59.332;18.244;2023-09-07T02:53:27;1.40;;;1.17;;
19788;SDS011;10054;59.332;18.244;2023-09-07T02:55:56;1.30;;;0.97;;
19788;SDS011;10054;59.332;18.244;2023-09-07T02:58:25;2.00;;;1.33;;
19788;SDS011;10054;59.332;18.244;2023-09-07T03:00:55;1.43;;;1.20;;
19788;SDS011;10054;59.332;18.244;2023-09-07T03:03:24;1.30;;;1.13;;
19788;SDS011;10054;59.332;18.244;2023-09-07T03:05:53;3.30;;;1.47;;
19788;SDS011;10054;59.332;18.244;2023-09-07T03:08:22;2.73;;;1.27;;
19788;SDS011;10054;59.332;18.244;2023-09-07T03:10:51;1.40;;;1.20;;
19788;SDS011;10054;59.332;18.244;2023-09-07T03:13:20;3.30;;;1.10;;
19788;SDS011;10054;59.332;18.244;2023-09-07T03:15:52;3.13;;;1.20;;
19788;SDS011;10054;59.332;18.244;2023-09-07T03:18:20;1.77;;;1.50;;
19788;SDS011;10054;59.332;18.244;2023-09-07T03:20:52;3.10;;;1.60;;
19788;SDS011;10054;59.332;18.244;2023-09-07T03:23:23;1.93;;;1.80;;
19788;SDS011;10054;59.332;18.244;2023-09-07T03:25:52;5.37;;;1.73;;
19788;SDS011;10054;59.332;18.244;2023-09-07T03:28:21;9.30;;;1.77;;
19788;SDS011;10054;59.332;18.244;2023-09-07T03:30:49;7.53;;;2.00;;
19788;SDS011;10054;59.332;18.244;2023-09-07T03:33:19;1.60;;;1.50;;
19788;SDS011;10054;59.332;18.244;2023-09-07T03:35:47;1.70;;;1.60;;
19788;SDS011;10054;59.332;18.244;2023-09-07T03:38:18;1.67;;;1.50;;
19788;SDS011;10054;59.332;18.244;2023-09-07T03:40:47;1.80;;;1.70;;
19788;SDS011;10054;59.332;18.244;2023-09-07T03:43:15;1.63;;;1.40;;
19788;SDS011;10054;59.332;18.244;2023-09-07T03:45:45;1.50;;;1.40;;
19788;SDS011;10054;59.332;18.244;2023-09-07T03:48:14;1.60;;;1.47;;
19788;SDS011;10054;59.332;18.244;2023-09-07T03:50:42;1.53;;;1.40;;
19788;SDS011;10054;59.332;18.244;2023-09-07T03:53:11;1.67;;;1.57;;
19788;SDS011;10054;59.332;18.244;2023-09-07T03:55:40;2.37;;;1.80;;
19788;SDS011;10054;59.332;18.244;2023-09-07T03:58:10;4.87;;;1.80;;
19788;SDS011;10054;59.332;18.244;2023-09-07T04:00:39;2.50;;;2.30;;
19788;SDS011;10054;59.332;18.244;2023-09-07T04:03:09;2.43;;;2.10;;
19788;SDS011;10054;59.332;18.244;2023-09-07T04:05:37;2.23;;;2.03;;
19788;SDS011;10054;59.332;18.244;2023-09-07T04:08:06;2.47;;;2.27;;
19788;SDS011;10054;59.332;18.244;2023-09-07T04:10:38;2.50;;;2.30;;
19788;SDS011;10054;59.332;18.244;2023-09-07T04:13:06;2.87;;;2.57;;
19788;SDS011;10054;59.332;18.244;2023-09-07T04:15:42;2.87;;;2.60;;
19788;SDS011;10054;59.332;18.244;2023-09-07T04:18:12;3.27;;;2.97;;
19788;SDS011;10054;59.332;18.244;2023-09-07T04:20:43;3.13;;;2.37;;
19788;SDS011;10054;59.332;18.244;2023-09-07T04:23:12;3.03;;;2.70;;
19788;SDS011;10054;59.332;18.244;2023-09-07T04:25:40;3.00;;;2.70;;
19788;SDS011;10054;59.332;18.244;2023-09-07T04:28:10;5.47;;;2.90;;
19788;SDS011;10054;59.332;18.244;2023-09-07T04:30:39;4.23;;;2.80;;
19788;SDS011;10054;59.332;18.244;2023-09-07T04:33:09;3.30;;;2.03;;
19788;SDS011;10054;59.332;18.244;2023-09-07T04:35:38;3.97;;;2.30;;
19788;SDS011;10054;59.332;18.244;2023-09-07T04:38:07;2.97;;;2.67;;
19788;SDS011;10054;59.332;18.244;2023-09-07T04:40:36;4.00;;;2.77;;
19788;SDS011;10054;59.332;18.244;2023-09-07T04:43:05;3.27;;;2.40;;
19788;SDS011;10054;59.332;18.244;2023-09-07T04:45:33;2.23;;;2.03;;
19788;SDS011;10054;59.332;18.244;2023-09-07T04:48:02;2.57;;;2.27;;
19788;SDS011;10054;59.332;18.244;2023-09-07T04:50:31;2.67;;;2.07;;
19788;SDS011;10054;59.332;18.244;2023-09-07T04:53:00;3.77;;;2.30;;
19788;SDS011;10054;59.332;18.244;2023-09-07T04:55:29;4.53;;;2.50;;
19788;SDS011;10054;59.332;18.244;2023-09-07T04:57:58;3.27;;;2.43;;
19788;SDS011;10054;59.332;18.244;2023-09-07T05:00:26;3.23;;;2.40;;
19788;SDS011;10054;59.332;18.244;2023-09-07T05:02:55;5.37;;;2.77;;
19788;SDS011;10054;59.332;18.244;2023-09-07T05:05:23;6.83;;;3.10;;
19788;SDS011;10054;59.332;18.244;2023-09-07T05:07:52;4.40;;;3.10;;
19788;SDS011;10054;59.332;18.244;2023-09-07T05:10:20;6.40;;;3.50;;
19788;SDS011;10054;59.332;18.244;2023-09-07T05:12:49;4.17;;;3.40;;
19788;SDS011;10054;59.332;18.244;2023-09-07T05:15:18;4.47;;;3.03;;
19788;SDS011;10054;59.332;18.244;2023-09-07T05:17:46;4.13;;;3.67;;
19788;SDS011;10054;59.332;18.244;2023-09-07T05:20:15;4.57;;;3.33;;
19788;SDS011;10054;59.332;18.244;2023-09-07T05:22:44;3.50;;;3.20;;
19788;SDS011;10054;59.332;18.244;2023-09-07T05:25:12;3.47;;;3.13;;
19788;SDS011;10054;59.332;18.244;2023-09-07T05:27:41;3.80;;;2.67;;
19788;SDS011;10054;59.332;18.244;2023-09-07T05:30:11;3.50;;;2.30;;
19788;SDS011;10054;59.332;18.244;2023-09-07T05:32:40;3.93;;;2.47;;
19788;SDS011;10054;59.332;18.244;2023-09-07T05:35:09;3.27;;;1.93;;
19788;SDS011;10054;59.332;18.244;2023-09-07T05:37:38;2.37;;;2.17;;
19788;SDS011;10054;59.332;18.244;2023-09-07T05:40:07;2.87;;;2.20;;
19788;SDS011;10054;59.332;18.244;2023-09-07T05:42:36;3.77;;;1.90;;
19788;SDS011;10054;59.332;18.244;2023-09-07T05:45:05;2.87;;;1.60;;
19788;SDS011;10054;59.332;18.244;2023-09-07T05:47:35;1.90;;;1.37;;
19788;SDS011;10054;59.332;18.244;2023-09-07T05:50:05;1.97;;;1.33;;
19788;SDS011;10054;59.332;18.244;2023-09-07T05:52:35;1.90;;;1.20;;
19788;SDS011;10054;59.332;18.244;2023-09-07T05:55:04;1.80;;;1.47;;
19788;SDS011;10054;59.332;18.244;2023-09-07T05:57:33;2.97;;;1.20;;
19788;SDS011;10054;59.332;18.244;2023-09-07T06:00:02;2.37;;;1.00;;
19788;SDS011;10054;59.332;18.244;2023-09-07T06:02:33;1.30;;;1.20;;
19788;SDS011;10054;59.332;18.244;2023-09-07T06:05:02;1.33;;;1.00;;
19788;SDS011;10054;59.332;18.244;2023-09-07T06:07:31;3.33;;;1.57;;
19788;SDS011;10054;59.332;18.244;2023-09-07T06:10:00;3.17;;;1.37;;
19788;SDS011;10054;59.332;18.244;2023-09-07T06:12:29;2.23;;;1.10;;
19788;SDS011;10054;59.332;18.244;2023-09-07T06:14:57;2.17;;;1.40;;
19788;SDS011;10054;59.332;18.244;2023-09-07T06:17:27;3.70;;;1.27;;
19788;SDS011;10054;59.332;18.244;2023-09-07T06:19:57;2.63;;;1.27;;
19788;SDS011;10054;59.332;18.244;2023-09-07T06:22:25;1.83;;;1.30;;
19788;SDS011;10054;59.332;18.244;2023-09-07T06:24:54;3.30;;;1.40;;
19788;SDS011;10054;59.332;18.244;2023-09-07T06:27:23;1.60;;;1.07;;
19788;SDS011;10054;59.332;18.244;2023-09-07T06:29:51;3.43;;;1.40;;
19788;SDS011;10054;59.332;18.244;2023-09-07T06:32:20;3.70;;;1.22;;
19788;SDS011;10054;59.332;18.244;2023-09-07T06:34:49;2.52;;;1.35;;
19788;SDS011;10054;59.332;18.244;2023-09-07T06:37:18;1.67;;;1.27;;
19788;SDS011;10054;59.332;18.244;2023-09-07T06:39:47;3.10;;;1.40;;
19788;SDS011;10054;59.332;18.244;2023-09-07T06:42:15;2.98;;;1.22;;
19788;SDS011;10054;59.332;18.244;2023-09-07T06:44:45;2.22;;;1.20;;
19788;SDS011;10054;59.332;18.244;2023-09-07T06:47:14;4.05;;;1.30;;
19788;SDS011;10054;59.332;18.244;2023-09-07T06:49:43;2.93;;;1.20;;
19788;SDS011;10054;59.332;18.244;2023-09-07T06:52:12;1.87;;;1.33;;
19788;SDS011;10054;59.332;18.244;2023-09-07T06:54:42;2.58;;;1.32;;
19788;SDS011;10054;59.332;18.244;2023-09-07T06:57:10;2.42;;;1.20;;
19788;SDS011;10054;59.332;18.244;2023-09-07T06:59:39;1.70;;;1.27;;
19788;SDS011;10054;59.332;18.244;2023-09-07T07:02:08;2.67;;;1.57;;
19788;SDS011;10054;59.332;18.244;2023-09-07T07:04:37;2.33;;;1.30;;
19788;SDS011;10054;59.332;18.244;2023-09-07T07:07:05;1.37;;;1.20;;
19788;SDS011;10054;59.332;18.244;2023-09-07T07:09:34;2.17;;;1.50;;
19788;SDS011;10054;59.332;18.244;2023-09-07T07:12:03;3.17;;;1.40;;
19788;SDS011;10054;59.332;18.244;2023-09-07T07:14:34;2.00;;;1.27;;
19788;SDS011;10054;59.332;18.244;2023-09-07T07:17:02;1.27;;;1.17;;
19788;SDS011;10054;59.332;18.244;2023-09-07T07:19:31;1.47;;;1.37;;
19788;SDS011;10054;59.332;18.244;2023-09-07T07:22:01;2.22;;;1.47;;
19788;SDS011;10054;59.332;18.244;2023-09-07T07:24:30;2.33;;;1.40;;
19788;SDS011;10054;59.332;18.244;2023-09-07T07:26:59;1.98;;;1.27;;
19788;SDS011;10054;59.332;18.244;2023-09-07T07:29:31;1.10;;;1.10;;
19788;SDS011;10054;59.332;18.244;2023-09-07T07:32:01;3.22;;;1.40;;
19788;SDS011;10054;59.332;18.244;2023-09-07T07:34:30;2.33;;;1.37;;
19788;SDS011;10054;59.332;18.244;2023-09-07T07:37:00;2.08;;;1.27;;
19788;SDS011;10054;59.332;18.244;2023-09-07T07:39:28;1.95;;;1.40;;
19788;SDS011;10054;59.332;18.244;2023-09-07T07:41:57;1.50;;;1.35;;
19788;SDS011;10054;59.332;18.244;2023-09-07T07:44:26;2.90;;;1.30;;
19788;SDS011;10054;59.332;18.244;2023-09-07T07:46:55;3.05;;;1.60;;
19788;SDS011;10054;59.332;18.244;2023-09-07T07:49:23;3.62;;;1.30;;
19788;SDS011;10054;59.332;18.244;2023-09-07T07:51:54;1.50;;;1.40;;
19788;SDS011;10054;59.332;18.244;2023-09-07T07:54:24;2.15;;;1.20;;
19788;SDS011;10054;59.332;18.244;2023-09-07T07:56:56;3.58;;;1.35;;
19788;SDS011;10054;59.332;18.244;2023-09-07T07:59:25;1.30;;;1.20;;
19788;SDS011;10054;59.332;18.244;2023-09-07T08:01:53;2.15;;;1.30;;
19788;SDS011;10054;59.332;18.244;2023-09-07T08:04:22;1.40;;;1.30;;
19788;SDS011;10054;59.332;18.244;2023-09-07T08:06:51;2.83;;;1.52;;
19788;SDS011;10054;59.332;18.244;2023-09-07T08:09:21;1.72;;;1.30;;
19788;SDS011;10054;59.332;18.244;2023-09-07T08:11:49;2.15;;;1.37;;
19788;SDS011;10054;59.332;18.244;2023-09-07T08:14:19;5.80;;;1.75;;
19788;SDS011;10054;59.332;18.244;2023-09-07T08:16:48;9.28;;;2.25;;
19788;SDS011;10054;59.332;18.244;2023-09-07T08:19:18;5.70;;;1.95;;
19788;SDS011;10054;59.332;18.244;2023-09-07T08:21:46;3.25;;;1.65;;
19788;SDS011;10054;59.332;18.244;2023-09-07T08:24:15;2.17;;;1.55;;
19788;SDS011;10054;59.332;18.244;2023-09-07T08:26:45;1.77;;;1.37;;
19788;SDS011;10054;59.332;18.244;2023-09-07T08:29:15;1.40;;;1.30;;
19788;SDS011;10054;59.332;18.244;2023-09-07T08:31:43;2.52;;;1.82;;
19788;SDS011;10054;59.332;18.244;2023-09-07T08:34:12;3.37;;;1.45;;
19788;SDS011;10054;59.332;18.244;2023-09-07T08:36:42;2.10;;;1.35;;
19788;SDS011;10054;59.332;18.244;2023-09-07T08:39:11;2.25;;;1.27;;
19788;SDS011;10054;59.332;18.244;2023-09-07T08:41:40;2.58;;;1.20;;
19788;SDS011;10054;59.332;18.244;2023-09-07T08:44:15;2.00;;;1.50;;
19788;SDS011;10054;59.332;18.244;2023-09-07T08:46:45;4.12;;;1.70;;
19788;SDS011;10054;59.332;18.244;2023-09-07T08:49:17;2.42;;;1.30;;
19788;SDS011;10054;59.332;18.244;2023-09-07T08:51:46;2.67;;;1.35;;
19788;SDS011;10054;59.332;18.244;2023-09-07T08:54:15;2.20;;;1.40;;
19788;SDS011;10054;59.332;18.244;2023-09-07T08:56:44;2.45;;;1.50;;
19788;SDS011;10054;59.332;18.244;2023-09-07T08:59:14;3.80;;;1.47;;
19788;SDS011;10054;59.332;18.244;2023-09-07T09:01:43;4.55;;;1.40;;
19788;SDS011;10054;59.332;18.244;2023-09-07T09:04:11;2.90;;;1.37;;
19788;SDS011;10054;59.332;18.244;2023-09-07T09:06:40;1.82;;;1.40;;
19788;SDS011;10054;59.332;18.244;2023-09-07T09:09:09;2.65;;;1.50;;
19788;SDS011;10054;59.332;18.244;2023-09-07T09:11:39;2.10;;;1.47;;
19788;SDS011;10054;59.332;18.244;2023-09-07T09:14:08;2.80;;;1.60;;
19788;SDS011;10054;59.332;18.244;2023-09-07T09:16:36;1.57;;;1.22;;
19788;SDS011;10054;59.332;18.244;2023-09-07T09:19:05;3.42;;;1.70;;
19788;SDS011;10054;59.332;18.244;2023-09-07T09:21:35;4.10;;;1.52;;
19788;SDS011;10054;59.332;18.244;2023-09-07T09:24:08;4.53;;;1.57;;
19788;SDS011;10054;59.332;18.244;2023-09-07T09:26:41;2.45;;;1.40;;
19788;SDS011;10054;59.332;18.244;2023-09-07T09:29:05;2.98;;;1.57;;
19788;SDS011;10054;59.332;18.244;2023-09-07T09:31:34;1.62;;;1.40;;
19788;SDS011;10054;59.332;18.244;2023-09-07T09:34:03;1.85;;;1.27;;
19788;SDS011;10054;59.332;18.244;2023-09-07T09:36:35;4.37;;;1.75;;
19788;SDS011;10054;59.332;18.244;2023-09-07T09:39:06;1.57;;;1.45;;
19788;SDS011;10054;59.332;18.244;2023-09-07T09:41:36;1.87;;;1.50;;
19788;SDS011;10054;59.332;18.244;2023-09-07T09:44:06;3.42;;;1.40;;
19788;SDS011;10054;59.332;18.244;2023-09-07T09:46:36;2.62;;;1.50;;
19788;SDS011;10054;59.332;18.244;2023-09-07T09:49:07;3.17;;;1.90;;
19788;SDS011;10054;59.332;18.244;2023-09-07T09:51:38;2.30;;;1.65;;
19788;SDS011;10054;59.332;18.244;2023-09-07T09:54:08;1.80;;;1.30;;
19788;SDS011;10054;59.332;18.244;2023-09-07T09:56:37;1.75;;;1.50;;
19788;SDS011;10054;59.332;18.244;2023-09-07T09:59:06;3.08;;;1.50;;
19788;SDS011;10054;59.332;18.244;2023-09-07T10:01:38;2.67;;;1.67;;
19788;SDS011;10054;59.332;18.244;2023-09-07T10:04:11;2.00;;;1.50;;
19788;SDS011;10054;59.332;18.244;2023-09-07T10:06:53;3.67;;;1.30;;
19788;SDS011;10054;59.332;18.244;2023-09-07T10:09:28;2.35;;;1.20;;
19788;SDS011;10054;59.332;18.244;2023-09-07T10:11:59;2.10;;;1.40;;
19788;SDS011;10054;59.332;18.244;2023-09-07T10:14:37;1.50;;;1.40;;
19788;SDS011;10054;59.332;18.244;2023-09-07T10:17:07;1.75;;;1.55;;
19788;SDS011;10054;59.332;18.244;2023-09-07T10:19:36;2.05;;;1.40;;
19788;SDS011;10054;59.332;18.244;2023-09-07T10:22:06;5.30;;;1.55;;
19788;SDS011;10054;59.332;18.244;2023-09-07T10:24:35;1.57;;;1.40;;
19788;SDS011;10054;59.332;18.244;2023-09-07T10:27:06;2.35;;;1.55;;
19788;SDS011;10054;59.332;18.244;2023-09-07T10:29:42;3.08;;;1.60;;
19788;SDS011;10054;59.332;18.244;2023-09-07T10:32:11;1.87;;;1.50;;
19788;SDS011;10054;59.332;18.244;2023-09-07T10:34:42;1.60;;;1.40;;
19788;SDS011;10054;59.332;18.244;2023-09-07T10:37:17;2.67;;;1.50;;
19788;SDS011;10054;59.332;18.244;2023-09-07T10:39:43;4.85;;;1.60;;
19788;SDS011;10054;59.332;18.244;2023-09-07T10:42:21;2.00;;;1.57;;
19788;SDS011;10054;59.332;18.244;2023-09-07T10:44:51;1.82;;;1.62;;
19788;SDS011;10054;59.332;18.244;2023-09-07T10:47:20;1.70;;;1.60;;
19788;SDS011;10054;59.332;18.244;2023-09-07T10:49:49;1.67;;;1.45;;
19788;SDS011;10054;59.332;18.244;2023-09-07T10:52:17;4.80;;;1.75;;
19788;SDS011;10054;59.332;18.244;2023-09-07T10:54:55;4.37;;;1.82;;
19788;SDS011;10054;59.332;18.244;2023-09-07T10:57:17;1.98;;;1.22;;
19788;SDS011;10054;59.332;18.244;2023-09-07T10:59:46;2.02;;;1.70;;
19788;SDS011;10054;59.332;18.244;2023-09-07T11:02:15;1.80;;;1.70;;
19788;SDS011;10054;59.332;18.244;2023-09-07T11:04:44;2.47;;;1.47;;
19788;SDS011;10054;59.332;18.244;2023-09-07T11:07:12;3.33;;;1.30;;
19788;SDS011;10054;59.332;18.244;2023-09-07T11:09:41;2.45;;;1.50;;
19788;SDS011;10054;59.332;18.244;2023-09-07T11:12:13;3.35;;;1.50;;
19788;SDS011;10054;59.332;18.244;2023-09-07T11:14:43;1.67;;;1.30;;
19788;SDS011;10054;59.332;18.244;2023-09-07T11:17:13;1.67;;;1.27;;
19788;SDS011;10054;59.332;18.244;2023-09-07T11:19:43;1.72;;;1.50;;
19788;SDS011;10054;59.332;18.244;2023-09-07T11:22:12;2.40;;;1.50;;
19788;SDS011;10054;59.332;18.244;2023-09-07T11:24:41;1.52;;;1.42;;
19788;SDS011;10054;59.332;18.244;2023-09-07T11:27:10;3.30;;;1.37;;
19788;SDS011;10054;59.332;18.244;2023-09-07T11:29:39;2.10;;;1.52;;
19788;SDS011;10054;59.332;18.244;2023-09-07T11:32:09;6.25;;;1.60;;
19788;SDS011;10054;59.332;18.244;2023-09-07T11:34:49;2.27;;;1.60;;
19788;SDS011;10054;59.332;18.244;2023-09-07T11:37:24;1.90;;;1.32;;
19788;SDS011;10054;59.332;18.244;2023-09-07T11:39:52;3.60;;;1.85;;
19788;SDS011;10054;59.332;18.244;2023-09-07T11:42:21;2.12;;;1.50;;
19788;SDS011;10054;59.332;18.244;2023-09-07T11:44:55;1.77;;;1.67;;
19788;SDS011;10054;59.332;18.244;2023-09-07T11:47:20;2.05;;;1.57;;
19788;SDS011;10054;59.332;18.244;2023-09-07T11:49:48;1.70;;;1.55;;
19788;SDS011;10054;59.332;18.244;2023-09-07T11:52:19;1.72;;;1.30;;
19788;SDS011;10054;59.332;18.244;2023-09-07T11:54:47;2.15;;;1.40;;
19788;SDS011;10054;59.332;18.244;2023-09-07T11:57:16;2.02;;;1.52;;
19788;SDS011;10054;59.332;18.244;2023-09-07T11:59:44;2.12;;;1.50;;
19788;SDS011;10054;59.332;18.244;2023-09-07T12:02:13;2.47;;;1.50;;
19788;SDS011;10054;59.332;18.244;2023-09-07T12:04:43;2.05;;;1.20;;
19788;SDS011;10054;59.332;18.244;2023-09-07T12:07:12;1.47;;;1.10;;
19788;SDS011;10054;59.332;18.244;2023-09-07T12:09:41;1.95;;;1.20;;
19788;SDS011;10054;59.332;18.244;2023-09-07T12:12:09;1.50;;;1.15;;
19788;SDS011;10054;59.332;18.244;2023-09-07T12:14:39;2.87;;;1.30;;
19788;SDS011;10054;59.332;18.244;2023-09-07T12:17:08;1.47;;;1.30;;
19788;SDS011;10054;59.332;18.244;2023-09-07T12:19:37;2.15;;;1.40;;
19788;SDS011;10054;59.332;18.244;2023-09-07T12:22:07;3.47;;;1.47;;
19788;SDS011;10054;59.332;18.244;2023-09-07T12:24:36;3.58;;;1.47;;
19788;SDS011;10054;59.332;18.244;2023-09-07T12:27:04;1.52;;;1.25;;
19788;SDS011;10054;59.332;18.244;2023-09-07T12:29:33;2.02;;;1.35;;
19788;SDS011;10054;59.332;18.244;2023-09-07T12:32:05;5.37;;;1.40;;
19788;SDS011;10054;59.332;18.244;2023-09-07T12:34:33;3.87;;;1.10;;
19788;SDS011;10054;59.332;18.244;2023-09-07T12:37:02;1.40;;;1.30;;
19788;SDS011;10054;59.332;18.244;2023-09-07T12:39:32;3.47;;;1.30;;
19788;SDS011;10054;59.332;18.244;2023-09-07T12:42:01;2.52;;;1.32;;
19788;SDS011;10054;59.332;18.244;2023-09-07T12:44:29;3.02;;;1.20;;
19788;SDS011;10054;59.332;18.244;2023-09-07T12:46:59;2.62;;;1.40;;
19788;SDS011;10054;59.332;18.244;2023-09-07T12:49:27;1.87;;;1.32;;
19788;SDS011;10054;59.332;18.244;2023-09-07T12:51:56;2.42;;;1.30;;
19788;SDS011;10054;59.332;18.244;2023-09-07T12:54:24;1.77;;;1.10;;
19788;SDS011;10054;59.332;18.244;2023-09-07T12:56:53;2.98;;;1.40;;
19788;SDS011;10054;59.332;18.244;2023-09-07T12:59:22;2.80;;;1.35;;
19788;SDS011;10054;59.332;18.244;2023-09-07T13:01:50;1.87;;;1.30;;
19788;SDS011;10054;59.332;18.244;2023-09-07T13:04:20;3.25;;;1.22;;
19788;SDS011;10054;59.332;18.244;2023-09-07T13:06:49;2.95;;;1.40;;
19788;SDS011;10054;59.332;18.244;2023-09-07T13:09:18;1.12;;;1.12;;
19788;SDS011;10054;59.332;18.244;2023-09-07T13:11:46;2.90;;;1.42;;
19788;SDS011;10054;59.332;18.244;2023-09-07T13:14:15;5.22;;;1.50;;
19788;SDS011;10054;59.332;18.244;2023-09-07T13:16:43;2.15;;;1.27;;
19788;SDS011;10054;59.332;18.244;2023-09-07T13:19:12;2.27;;;1.32;;
19788;SDS011;10054;59.332;18.244;2023-09-07T13:21:41;3.00;;;1.32;;
19788;SDS011;10054;59.332;18.244;2023-09-07T13:24:09;2.42;;;1.22;;
19788;SDS011;10054;59.332;18.244;2023-09-07T13:26:39;4.33;;;1.32;;
19788;SDS011;10054;59.332;18.244;2023-09-07T13:29:08;1.60;;;1.30;;
19788;SDS011;10054;59.332;18.244;2023-09-07T13:31:36;3.60;;;1.30;;
19788;SDS011;10054;59.332;18.244;2023-09-07T13:34:05;3.72;;;1.40;;
19788;SDS011;10054;59.332;18.244;2023-09-07T13:36:33;1.55;;;1.30;;
19788;SDS011;10054;59.332;18.244;2023-09-07T13:39:06;2.20;;;1.25;;
19788;SDS011;10054;59.332;18.244;2023-09-07T13:41:34;1.62;;;1.30;;
19788;SDS011;10054;59.332;18.244;2023-09-07T13:44:03;1.90;;;1.32;;
19788;SDS011;10054;59.332;18.244;2023-09-07T13:46:32;1.65;;;1.25;;
19788;SDS011;10054;59.332;18.244;2023-09-07T13:49:01;2.35;;;1.35;;
19788;SDS011;10054;59.332;18.244;2023-09-07T13:51:30;5.20;;;1.40;;
19788;SDS011;10054;59.332;18.244;2023-09-07T13:54:00;1.47;;;1.30;;
19788;SDS011;10054;59.332;18.244;2023-09-07T13:56:29;2.17;;;1.57;;
19788;SDS011;10054;59.332;18.244;2023-09-07T13:58:58;1.75;;;1.50;;
19788;SDS011;10054;59.332;18.244;2023-09-07T14:01:27;1.57;;;1.30;;
19788;SDS011;10054;59.332;18.244;2023-09-07T14:03:56;1.35;;;1.12;;
19788;SDS011;10054;59.332;18.244;2023-09-07T14:06:25;2.00;;;1.30;;
19788;SDS011;10054;59.332;18.244;2023-09-07T14:08:53;2.67;;;1.22;;
19788;SDS011;10054;59.332;18.244;2023-09-07T14:11:22;2.37;;;1.32;;
19788;SDS011;10054;59.332;18.244;2023-09-07T14:13:51;1.25;;;1.22;;
19788;SDS011;10054;59.332;18.244;2023-09-07T14:16:21;2.55;;;1.40;;
19788;SDS011;10054;59.332;18.244;2023-09-07T14:18:50;2.40;;;1.30;;
19788;SDS011;10054;59.332;18.244;2023-09-07T14:21:19;2.85;;;1.40;;
19788;SDS011;10054;59.332;18.244;2023-09-07T14:23:47;2.22;;;1.30;;
19788;SDS011;10054;59.332;18.244;2023-09-07T14:26:16;4.37;;;1.52;;
19788;SDS011;10054;59.332;18.244;2023-09-07T14:28:45;2.45;;;1.12;;
19788;SDS011;10054;59.332;18.244;2023-09-07T14:31:13;3.70;;;1.30;;
19788;SDS011;10054;59.332;18.244;2023-09-07T14:33:42;2.02;;;1.25;;
19788;SDS011;10054;59.332;18.244;2023-09-07T14:36:11;2.05;;;1.20;;
19788;SDS011;10054;59.332;18.244;2023-09-07T14:38:40;3.25;;;1.42;;
19788;SDS011;10054;59.332;18.244;2023-09-07T14:41:11;2.62;;;1.37;;
19788;SDS011;10054;59.332;18.244;2023-09-07T14:43:41;3.42;;;1.40;;
19788;SDS011;10054;59.332;18.244;2023-09-07T14:46:10;2.00;;;1.25;;
19788;SDS011;10054;59.332;18.244;2023-09-07T14:48:39;2.90;;;1.37;;